Time;durP1;ratioP1;P1;durP2;ratioP2;P2;SDS_P1;SDS_P2;PMS_P1;PMS_P2;Temp;Humidity;BMP_temperature;BMP_pressure;BME280_temperature;BME280_humidity;BME280_pressure;Samples;Min_cycle;Max_cycle;Signal;HPM_P1;HPM_P2
2022/07/13 00:00:33;;;;;;;6.77;4.43;;;;;;;;;;5070171;28;20094;-60
2022/07/13 00:02:59;;;;;;;6.30;3.97;;;;;;;;;;5069363;28;20045;-60
2022/07/13 00:05:25;;;;;;;5.70;4.47;;;;;;;;;;5069540;28;20601;-60
2022/07/13 00:07:51;;;;;;;7.40;4.53;;;;;;;;;;5069922;28;20071;-60
2022/07/13 00:10:17;;;;;;;6.97;4.97;;;;;;;;;;5069658;28;20092;-60
2022/07/13 00:12:43;;;;;;;7.23;4.93;;;;;;;;;;5069555;28;20060;-60
2022/07/13 00:15:10;;;;;;;7.80;5.17;;;;;;;;;;5069552;28;20040;-60
2022/07/13 00:17:36;;;;;;;7.87;5.47;;;;;;;;;;5069301;28;20147;-60
2022/07/13 00:20:02;;;;;;;6.40;5.03;;;;;;;;;;5069670;28;20091;-60
2022/07/13 00:22:28;;;;;;;6.57;5.87;;;;;;;;;;5069515;28;20048;-60
2022/07/13 00:24:54;;;;;;;8.70;5.87;;;;;;;;;;5069606;28;20052;-60
2022/07/13 00:27:20;;;;;;;6.60;5.70;;;;;;;;;;5069079;28;20079;-59
2022/07/13 00:29:46;;;;;;;7.67;6.00;;;;;;;;;;5069302;28;20136;-60
2022/07/13 00:32:12;;;;;;;8.97;5.70;;;;;;;;;;5069001;28;20076;-60
2022/07/13 00:34:39;;;;;;;8.67;6.27;;;;;;;;;;5069048;28;20082;-60
2022/07/13 00:37:05;;;;;;;9.20;6.13;;;;;;;;;;5068853;28;20044;-60
2022/07/13 00:39:32;;;;;;;8.47;5.97;;;;;;;;;;5069036;28;20044;-61
2022/07/13 00:41:57;;;;;;;9.47;6.53;;;;;;;;;;5061970;28;20060;-60
2022/07/13 00:44:23;;;;;;;7.90;6.10;;;;;;;;;;5056384;28;20106;-59
2022/07/13 00:46:54;;;;;;;8.53;6.37;;;;;;;;;;5058523;28;20418;-60
2022/07/13 00:49:21;;;;;;;7.17;6.40;;;;;;;;;;5059107;28;20556;-60
2022/07/13 00:51:47;;;;;;;12.27;6.93;;;;;;;;;;5055849;28;20029;-60
2022/07/13 00:54:13;;;;;;;8.87;5.97;;;;;;;;;;5057813;28;20037;-60
2022/07/13 00:56:39;;;;;;;7.57;6.43;;;;;;;;;;5059194;28;20132;-60
2022/07/13 00:59:06;;;;;;;7.00;6.30;;;;;;;;;;5060167;28;20071;-60
2022/07/13 01:01:33;;;;;;;8.40;6.40;;;;;;;;;;5057339;28;20040;-60
2022/07/13 01:03:59;;;;;;;8.87;6.47;;;;;;;;;;5058715;28;20076;-60
2022/07/13 01:06:25;;;;;;;7.43;6.63;;;;;;;;;;5054445;28;20090;-61
2022/07/13 01:08:51;;;;;;;9.77;6.47;;;;;;;;;;5057635;28;20047;-60
2022/07/13 01:11:17;;;;;;;9.63;6.60;;;;;;;;;;5058833;28;20128;-60
2022/07/13 01:13:44;;;;;;;8.10;6.70;;;;;;;;;;5056264;28;20131;-60
2022/07/13 01:16:10;;;;;;;9.00;6.60;;;;;;;;;;5057808;28;20772;-60
2022/07/13 01:18:37;;;;;;;8.23;6.80;;;;;;;;;;5058297;28;20040;-60
2022/07/13 01:21:05;;;;;;;7.37;6.47;;;;;;;;;;5056890;28;20213;-60
2022/07/13 01:23:32;;;;;;;8.30;6.60;;;;;;;;;;5057177;28;20048;-60
2022/07/13 01:25:58;;;;;;;7.43;5.93;;;;;;;;;;5057929;28;20048;-60
2022/07/13 01:28:24;;;;;;;8.90;6.80;;;;;;;;;;5056895;28;20040;-60
2022/07/13 01:30:50;;;;;;;8.43;7.10;;;;;;;;;;5057490;28;20044;-60
2022/07/13 01:33:16;;;;;;;7.70;6.70;;;;;;;;;;5058338;28;20037;-60
2022/07/13 01:35:42;;;;;;;11.07;7.70;;;;;;;;;;5058259;28;20043;-60
2022/07/13 01:38:09;;;;;;;12.83;6.90;;;;;;;;;;5056944;28;20045;-60
2022/07/13 01:40:35;;;;;;;11.23;7.53;;;;;;;;;;5056550;28;20052;-60
2022/07/13 01:43:01;;;;;;;10.07;7.80;;;;;;;;;;5058127;28;20049;-60
2022/07/13 01:45:27;;;;;;;9.27;6.97;;;;;;;;;;5055499;28;20033;-60
2022/07/13 01:47:54;;;;;;;9.40;7.70;;;;;;;;;;5048232;28;20049;-60
2022/07/13 01:50:21;;;;;;;11.67;7.60;;;;;;;;;;5048472;28;20491;-60
2022/07/13 01:52:48;;;;;;;10.50;6.93;;;;;;;;;;5048272;28;20051;-59
2022/07/13 01:55:14;;;;;;;8.13;7.17;;;;;;;;;;5047939;28;20055;-60
2022/07/13 01:57:40;;;;;;;11.43;6.87;;;;;;;;;;5048197;28;20045;-60
2022/07/13 02:00:08;;;;;;;11.90;7.33;;;;;;;;;;5047827;28;20743;-60
2022/07/13 02:02:35;;;;;;;8.30;6.97;;;;;;;;;;5048075;28;20736;-60
2022/07/13 02:05:01;;;;;;;7.83;7.03;;;;;;;;;;5048451;28;20086;-60
2022/07/13 02:07:27;;;;;;;8.33;7.13;;;;;;;;;;5048430;28;20049;-60
2022/07/13 02:09:53;;;;;;;7.27;6.47;;;;;;;;;;5048568;28;20049;-60
2022/07/13 02:12:19;;;;;;;7.30;6.50;;;;;;;;;;5047848;28;20094;-60
2022/07/13 02:14:46;;;;;;;7.87;6.50;;;;;;;;;;5047719;28;20136;-60
2022/07/13 02:17:12;;;;;;;8.27;6.23;;;;;;;;;;5047870;28;20045;-60
2022/07/13 02:19:38;;;;;;;9.40;6.27;;;;;;;;;;5058332;28;20048;-60
2022/07/13 02:22:04;;;;;;;6.77;6.00;;;;;;;;;;5068044;28;20403;-60
2022/07/13 02:24:30;;;;;;;8.43;6.10;;;;;;;;;;5067798;28;20094;-60
2022/07/13 02:26:56;;;;;;;6.77;5.87;;;;;;;;;;5067730;28;20072;-60
2022/07/13 02:29:22;;;;;;;9.70;7.10;;;;;;;;;;5067957;28;20859;-60
2022/07/13 02:31:48;;;;;;;9.50;6.13;;;;;;;;;;5067947;28;20052;-60
2022/07/13 02:34:14;;;;;;;6.87;5.63;;;;;;;;;;5067723;28;20411;-60
2022/07/13 02:36:40;;;;;;;8.73;6.67;;;;;;;;;;5067260;28;20036;-60
2022/07/13 02:39:06;;;;;;;6.97;6.10;;;;;;;;;;5067650;28;20044;-60
2022/07/13 02:41:32;;;;;;;8.43;7.17;;;;;;;;;;5067837;28;20037;-60
2022/07/13 02:43:58;;;;;;;9.47;6.43;;;;;;;;;;5067281;28;20113;-60
2022/07/13 02:46:24;;;;;;;9.57;7.33;;;;;;;;;;5067418;28;20110;-60
2022/07/13 02:48:50;;;;;;;8.50;6.53;;;;;;;;;;5066648;28;20514;-60
2022/07/13 02:51:16;;;;;;;9.10;7.37;;;;;;;;;;5067683;28;20135;-60
2022/07/13 02:53:42;;;;;;;11.17;7.27;;;;;;;;;;5067240;28;20048;-60
2022/07/13 02:56:08;;;;;;;10.07;7.00;;;;;;;;;;5067271;28;21032;-60
2022/07/13 02:58:34;;;;;;;8.67;7.20;;;;;;;;;;5067428;28;20044;-60
2022/07/13 03:01:01;;;;;;;8.63;7.57;;;;;;;;;;5067344;28;20041;-61
2022/07/13 03:03:27;;;;;;;8.07;7.03;;;;;;;;;;5067478;28;20080;-60
2022/07/13 03:05:53;;;;;;;7.97;6.93;;;;;;;;;;5067641;28;20072;-61
2022/07/13 03:08:19;;;;;;;8.70;7.37;;;;;;;;;;5070742;28;20040;-60
2022/07/13 03:10:45;;;;;;;8.20;7.23;;;;;;;;;;5070384;28;20441;-60
2022/07/13 03:13:11;;;;;;;10.13;7.57;;;;;;;;;;5070952;28;20048;-60
2022/07/13 03:15:37;;;;;;;10.10;6.97;;;;;;;;;;5070654;28;20051;-60
2022/07/13 03:18:04;;;;;;;13.20;7.73;;;;;;;;;;5070552;28;20044;-60
2022/07/13 03:20:30;;;;;;;9.57;7.60;;;;;;;;;;5070616;28;20044;-60
2022/07/13 03:22:56;;;;;;;9.00;7.63;;;;;;;;;;5070462;28;20082;-59
2022/07/13 03:25:22;;;;;;;8.43;7.40;;;;;;;;;;5070430;28;20798;-59
2022/07/13 03:27:48;;;;;;;9.50;6.50;;;;;;;;;;5070512;28;20047;-60
2022/07/13 03:30:14;;;;;;;9.03;7.27;;;;;;;;;;5070473;28;20053;-60
2022/07/13 03:32:40;;;;;;;11.37;7.30;;;;;;;;;;5070510;28;20048;-60
2022/07/13 03:35:06;;;;;;;8.70;7.80;;;;;;;;;;5070177;28;20052;-60
2022/07/13 03:37:32;;;;;;;8.93;7.37;;;;;;;;;;5070058;28;20589;-60
2022/07/13 03:39:58;;;;;;;8.43;7.37;;;;;;;;;;5070299;28;20040;-60
2022/07/13 03:42:24;;;;;;;8.70;7.10;;;;;;;;;;5069915;28;20098;-60
2022/07/13 03:44:50;;;;;;;9.40;7.47;;;;;;;;;;5070029;28;20057;-60
2022/07/13 03:47:16;;;;;;;8.00;6.37;;;;;;;;;;5070060;28;20048;-60
2022/07/13 03:49:42;;;;;;;10.47;7.17;;;;;;;;;;5069371;28;20045;-60
2022/07/13 03:52:08;;;;;;;10.03;7.50;;;;;;;;;;5069887;28;20387;-60
2022/07/13 03:54:34;;;;;;;8.67;7.30;;;;;;;;;;5069366;28;20110;-60
2022/07/13 03:57:00;;;;;;;7.77;6.63;;;;;;;;;;5055063;28;20135;-60
2022/07/13 03:59:26;;;;;;;7.87;6.53;;;;;;;;;;5055889;28;20040;-60
2022/07/13 04:01:52;;;;;;;8.83;6.60;;;;;;;;;;5059808;28;20045;-60
2022/07/13 04:04:18;;;;;;;8.47;7.03;;;;;;;;;;5060341;28;20534;-60
2022/07/13 04:06:44;;;;;;;8.37;6.80;;;;;;;;;;5052687;28;20045;-60
2022/07/13 04:09:10;;;;;;;10.73;7.10;;;;;;;;;;5049820;28;20044;-60
2022/07/13 04:11:37;;;;;;;8.23;6.80;;;;;;;;;;5050023;28;20045;-60
2022/07/13 04:14:03;;;;;;;8.33;6.70;;;;;;;;;;5050040;28;20079;-61
2022/07/13 04:16:29;;;;;;;8.20;6.13;;;;;;;;;;5049533;28;20053;-60
2022/07/13 04:18:55;;;;;;;7.43;6.63;;;;;;;;;;5050037;28;20075;-60
2022/07/13 04:21:21;;;;;;;9.33;7.17;;;;;;;;;;5049583;28;20483;-60
2022/07/13 04:23:47;;;;;;;8.77;6.50;;;;;;;;;;5048757;28;20132;-60
2022/07/13 04:26:13;;;;;;;9.10;6.40;;;;;;;;;;5049150;28;20107;-60
2022/07/13 04:28:39;;;;;;;7.27;6.57;;;;;;;;;;5049619;28;20048;-60
2022/07/13 04:31:05;;;;;;;8.00;6.93;;;;;;;;;;5048344;28;20641;-60
2022/07/13 04:33:31;;;;;;;11.30;7.00;;;;;;;;;;5047786;28;20511;-59
2022/07/13 04:35:57;;;;;;;8.50;7.37;;;;;;;;;;5048640;28;20102;-60
2022/07/13 04:38:23;;;;;;;7.83;6.93;;;;;;;;;;5048502;28;20156;-59
2022/07/13 04:40:49;;;;;;;7.80;6.93;;;;;;;;;;5048611;28;20467;-59
2022/07/13 04:43:15;;;;;;;8.70;6.63;;;;;;;;;;5048344;28;20140;-59
2022/07/13 04:45:41;;;;;;;8.77;7.37;;;;;;;;;;5048394;28;20132;-59
2022/07/13 04:48:07;;;;;;;10.97;7.50;;;;;;;;;;5048123;28;20060;-60
2022/07/13 04:50:33;;;;;;;8.10;6.67;;;;;;;;;;5048714;28;20060;-59
2022/07/13 04:52:59;;;;;;;10.50;7.67;;;;;;;;;;5048132;28;20617;-60
2022/07/13 04:55:26;;;;;;;7.83;6.93;;;;;;;;;;5048235;28;20044;-59
2022/07/13 04:57:54;;;;;;;7.53;6.73;;;;;;;;;;5048522;28;20504;-60
2022/07/13 05:00:20;;;;;;;7.60;6.57;;;;;;;;;;5048177;28;20060;-59
2022/07/13 05:02:46;;;;;;;8.53;7.10;;;;;;;;;;5047747;28;20048;-60
2022/07/13 05:05:12;;;;;;;7.53;6.40;;;;;;;;;;5048513;28;20526;-60
2022/07/13 05:07:38;;;;;;;10.40;6.70;;;;;;;;;;5048568;28;20045;-60
2022/07/13 05:10:04;;;;;;;8.80;6.73;;;;;;;;;;5048078;28;20064;-60
2022/07/13 05:12:30;;;;;;;6.80;6.10;;;;;;;;;;5046989;28;20457;-60
2022/07/13 05:14:58;;;;;;;8.20;6.03;;;;;;;;;;5047911;28;20400;-60
2022/07/13 05:17:24;;;;;;;8.70;6.50;;;;;;;;;;5048777;28;20051;-59
2022/07/13 05:19:50;;;;;;;7.23;5.90;;;;;;;;;;5048090;28;20041;-60
2022/07/13 05:22:16;;;;;;;9.43;5.93;;;;;;;;;;5047977;28;20414;-60
2022/07/13 05:24:43;;;;;;;6.50;5.67;;;;;;;;;;5047261;28;20171;-60
2022/07/13 05:27:11;;;;;;;6.73;5.13;;;;;;;;;;5046677;28;20045;-60
2022/07/13 05:29:37;;;;;;;7.13;5.23;;;;;;;;;;5047526;28;20126;-60
2022/07/13 05:32:03;;;;;;;7.07;4.63;;;;;;;;;;5047838;28;20155;-60
2022/07/13 05:34:29;;;;;;;6.27;3.70;;;;;;;;;;5047925;28;20060;-60
2022/07/13 05:36:55;;;;;;;6.73;4.83;;;;;;;;;;5047602;28;20143;-61
2022/07/13 05:39:22;;;;;;;6.33;4.30;;;;;;;;;;5046908;28;20056;-60
2022/07/13 05:41:48;;;;;;;5.00;4.27;;;;;;;;;;5047844;28;20168;-60
2022/07/13 05:44:14;;;;;;;5.47;3.83;;;;;;;;;;5047686;28;20135;-60
2022/07/13 05:46:40;;;;;;;6.60;4.13;;;;;;;;;;5047279;28;20136;-60
2022/07/13 05:49:06;;;;;;;5.60;3.63;;;;;;;;;;5047661;28;20045;-60
2022/07/13 05:51:32;;;;;;;4.43;3.70;;;;;;;;;;5047135;28;20041;-60
2022/07/13 05:53:58;;;;;;;6.93;3.90;;;;;;;;;;5047270;28;20068;-60
2022/07/13 05:56:24;;;;;;;8.00;4.13;;;;;;;;;;5047409;28;20518;-60
2022/07/13 05:58:50;;;;;;;5.60;4.00;;;;;;;;;;5047040;28;20075;-60
2022/07/13 06:01:16;;;;;;;3.97;3.43;;;;;;;;;;5047555;28;20119;-61
2022/07/13 06:03:42;;;;;;;5.50;3.80;;;;;;;;;;5047171;28;20515;-60
2022/07/13 06:06:08;;;;;;;6.23;4.27;;;;;;;;;;5047414;28;20148;-60
2022/07/13 06:08:34;;;;;;;5.17;4.13;;;;;;;;;;5047760;28;20078;-60
2022/07/13 06:11:00;;;;;;;4.77;3.63;;;;;;;;;;5047477;28;20049;-60
2022/07/13 06:13:26;;;;;;;4.73;3.87;;;;;;;;;;5047096;28;20056;-60
2022/07/13 06:15:52;;;;;;;6.43;4.10;;;;;;;;;;5047280;28;20400;-60
2022/07/13 06:18:18;;;;;;;5.63;3.57;;;;;;;;;;5047336;28;20075;-60
2022/07/13 06:20:44;;;;;;;5.00;4.13;;;;;;;;;;5047302;28;20041;-61
2022/07/13 06:23:10;;;;;;;5.47;4.07;;;;;;;;;;5047371;28;20057;-60
2022/07/13 06:25:39;;;;;;;5.93;3.93;;;;;;;;;;5047103;28;20131;-60
2022/07/13 06:28:05;;;;;;;5.60;3.33;;;;;;;;;;5046635;28;20549;-60
2022/07/13 06:30:32;;;;;;;4.20;3.03;;;;;;;;;;5046831;28;20495;-60
2022/07/13 06:32:58;;;;;;;4.70;3.03;;;;;;;;;;5047026;28;20048;-60
2022/07/13 06:35:24;;;;;;;7.10;3.33;;;;;;;;;;5047519;28;20045;-60
2022/07/13 06:37:50;;;;;;;5.50;3.60;;;;;;;;;;5046952;28;20534;-60
2022/07/13 06:40:16;;;;;;;5.40;3.20;;;;;;;;;;5046445;28;20048;-60
2022/07/13 06:42:43;;;;;;;4.70;3.40;;;;;;;;;;5049516;28;20064;-60
2022/07/13 06:45:09;;;;;;;6.27;3.63;;;;;;;;;;5051448;28;20053;-60
2022/07/13 06:47:35;;;;;;;6.43;3.10;;;;;;;;;;5050450;28;20071;-60
2022/07/13 06:50:02;;;;;;;4.13;3.00;;;;;;;;;;5050965;28;20064;-60
2022/07/13 06:52:27;;;;;;;5.97;3.37;;;;;;;;;;5051270;28;20492;-59
2022/07/13 06:54:53;;;;;;;7.60;3.63;;;;;;;;;;5050129;28;20141;-60
2022/07/13 06:57:19;;;;;;;8.13;4.00;;;;;;;;;;5049288;28;20044;-60
2022/07/13 06:59:45;;;;;;;6.73;4.57;;;;;;;;;;5050930;28;20208;-60
2022/07/13 07:02:11;;;;;;;4.77;4.10;;;;;;;;;;5050534;28;20506;-60
2022/07/13 07:04:37;;;;;;;5.30;4.53;;;;;;;;;;5050726;28;20059;-60
2022/07/13 07:07:04;;;;;;;5.93;5.20;;;;;;;;;;5050412;28;20040;-60
2022/07/13 07:09:30;;;;;;;8.37;5.13;;;;;;;;;;5050676;28;20525;-60
2022/07/13 07:11:56;;;;;;;6.20;5.43;;;;;;;;;;5049705;28;20041;-59
2022/07/13 07:14:22;;;;;;;11.32;6.13;;;;;;;;;;5050449;28;20045;-60
2022/07/13 07:16:49;;;;;;;7.22;5.22;;;;;;;;;;5050033;28;20048;-60
2022/07/13 07:19:15;;;;;;;9.82;5.63;;;;;;;;;;5050353;28;20049;-60
2022/07/13 07:21:41;;;;;;;8.68;5.95;;;;;;;;;;5049822;28;20045;-59
2022/07/13 07:24:07;;;;;;;8.40;5.47;;;;;;;;;;5050113;28;20179;-60
2022/07/13 07:26:33;;;;;;;12.95;6.70;;;;;;;;;;5050363;28;20057;-60
2022/07/13 07:28:59;;;;;;;10.95;7.50;;;;;;;;;;5049823;28;20059;-60
2022/07/13 07:31:25;;;;;;;10.88;7.25;;;;;;;;;;5049883;28;20156;-60
2022/07/13 07:33:52;;;;;;;12.88;6.85;;;;;;;;;;5050055;28;20091;-60
2022/07/13 07:36:18;;;;;;;10.88;7.18;;;;;;;;;;5049631;28;20459;-60
2022/07/13 07:38:44;;;;;;;8.10;7.25;;;;;;;;;;5049435;28;20530;-60
2022/07/13 07:41:11;;;;;;;12.40;7.70;;;;;;;;;;5049654;28;20049;-60
2022/07/13 07:43:40;;;;;;;9.98;7.30;;;;;;;;;;5049356;28;20458;-60
2022/07/13 07:46:06;;;;;;;8.48;7.43;;;;;;;;;;5049624;28;20462;-60
2022/07/13 07:48:32;;;;;;;9.25;6.95;;;;;;;;;;5049524;28;20128;-60
2022/07/13 07:50:58;;;;;;;8.80;7.40;;;;;;;;;;5049401;28;20130;-60
2022/07/13 07:53:25;;;;;;;9.55;7.10;;;;;;;;;;5048849;28;20045;-60
2022/07/13 07:55:51;;;;;;;10.32;7.45;;;;;;;;;;5049261;28;20114;-60
2022/07/13 07:58:17;;;;;;;10.85;7.05;;;;;;;;;;5049442;28;20044;-60
2022/07/13 08:00:44;;;;;;;10.05;7.47;;;;;;;;;;5049344;28;20041;-60
2022/07/13 08:03:10;;;;;;;12.45;8.10;;;;;;;;;;5049105;28;20486;-60
2022/07/13 08:05:37;;;;;;;8.05;6.82;;;;;;;;;;5049268;28;20525;-59
2022/07/13 08:08:04;;;;;;;9.48;7.10;;;;;;;;;;5049296;28;20487;-59
2022/07/13 08:10:30;;;;;;;11.40;7.00;;;;;;;;;;5049393;28;20053;-59
2022/07/13 08:12:57;;;;;;;11.20;6.38;;;;;;;;;;5049109;28;20045;-59
2022/07/13 08:15:23;;;;;;;8.00;5.57;;;;;;;;;;5048775;28;20260;-59
2022/07/13 08:17:49;;;;;;;9.15;6.65;;;;;;;;;;5049187;28;20048;-60
2022/07/13 08:20:15;;;;;;;10.15;6.15;;;;;;;;;;5049096;28;20049;-59
2022/07/13 08:22:41;;;;;;;9.07;6.57;;;;;;;;;;5049154;28;20404;-60
2022/07/13 08:25:07;;;;;;;9.23;6.15;;;;;;;;;;5048301;28;20056;-60
2022/07/13 08:27:33;;;;;;;9.90;5.20;;;;;;;;;;5049021;28;20073;-60
2022/07/13 08:30:00;;;;;;;9.55;5.78;;;;;;;;;;5048953;28;20041;-60
2022/07/13 08:32:26;;;;;;;7.43;5.22;;;;;;;;;;5047432;28;20053;-60
2022/07/13 08:40:22;;;;;;;8.52;5.63;;;;;;;;;;5048973;28;20052;-60
2022/07/13 08:42:48;;;;;;;8.90;5.63;;;;;;;;;;5048494;28;20490;-60
2022/07/13 08:45:14;;;;;;;11.57;6.20;;;;;;;;;;5048949;28;20132;-60
2022/07/13 08:47:45;;;;;;;6.43;4.90;;;;;;;;;;5048060;28;20041;-60
2022/07/13 08:50:12;;;;;;;6.72;4.97;;;;;;;;;;5048619;28;20048;-60
2022/07/13 08:52:39;;;;;;;10.15;5.43;;;;;;;;;;5048436;28;20415;-60
2022/07/13 08:55:06;;;;;;;8.05;5.20;;;;;;;;;;5048271;28;20099;-60
2022/07/13 08:57:34;;;;;;;7.43;5.65;;;;;;;;;;5048473;28;20053;-60
2022/07/13 09:00:01;;;;;;;9.05;5.13;;;;;;;;;;5047909;28;20103;-60
2022/07/13 09:02:27;;;;;;;7.28;5.00;;;;;;;;;;5048204;28;20132;-60
2022/07/13 09:04:53;;;;;;;8.95;5.18;;;;;;;;;;5047478;28;20088;-60
2022/07/13 09:07:19;;;;;;;8.23;5.20;;;;;;;;;;5048436;28;20051;-60
2022/07/13 09:09:45;;;;;;;8.05;5.57;;;;;;;;;;5048087;28;20044;-60
2022/07/13 09:12:17;;;;;;;7.90;4.82;;;;;;;;;;5048228;28;20041;-60
2022/07/13 09:14:56;;;;;;;7.22;4.22;;;;;;;;;;5047499;28;20041;-60
2022/07/13 09:17:38;;;;;;;7.10;4.95;;;;;;;;;;5048174;28;20086;-61
2022/07/13 09:20:05;;;;;;;;;;;;;;;;;;5048759;28;20135;-60
2022/07/13 09:22:31;;;;;;;5.75;3.90;;;;;;;;;;5047992;28;19920;-60
2022/07/13 09:24:58;;;;;;;12.85;4.35;;;;;;;;;;5048050;28;20041;-60
2022/07/13 09:27:24;;;;;;;9.50;5.28;;;;;;;;;;5047973;28;20052;-60
2022/07/13 09:29:50;;;;;;;7.47;5.55;;;;;;;;;;5047369;28;20075;-60
2022/07/13 09:32:16;;;;;;;6.90;4.20;;;;;;;;;;5047953;28;20053;-61
2022/07/13 09:34:58;;;;;;;10.15;4.60;;;;;;;;;;5047466;28;20451;-61
2022/07/13 09:37:28;;;;;;;7.40;3.95;;;;;;;;;;5047632;28;20443;-61
2022/07/13 09:40:07;;;;;;;6.18;3.88;;;;;;;;;;5047199;28;20526;-60
2022/07/13 09:42:43;;;;;;;5.32;3.80;;;;;;;;;;5047669;28;20060;-60
2022/07/13 09:47:55;;;;;;;6.32;4.10;;;;;;;;;;5047129;28;20558;-60
2022/07/13 09:50:25;;;;;;;7.05;3.90;;;;;;;;;;5047341;28;20041;-60
2022/07/13 09:52:52;;;;;;;5.80;4.25;;;;;;;;;;5047608;28;20045;-60
2022/07/13 09:55:26;;;;;;;6.47;4.00;;;;;;;;;;5047794;28;20414;-61
2022/07/13 09:57:54;;;;;;;7.78;3.75;;;;;;;;;;5047523;28;20049;-60
2022/07/13 10:00:21;;;;;;;6.25;3.83;;;;;;;;;;5046981;28;20171;-60
2022/07/13 10:02:48;;;;;;;6.28;4.10;;;;;;;;;;5047547;28;20461;-61
2022/07/13 10:05:19;;;;;;;6.65;4.53;;;;;;;;;;5047523;28;20074;-61
2022/07/13 10:07:46;;;;;;;6.20;4.90;;;;;;;;;;5047344;28;20151;-61
2022/07/13 10:10:12;;;;;;;7.60;4.82;;;;;;;;;;5047172;28;20041;-61
2022/07/13 10:12:39;;;;;;;8.27;4.93;;;;;;;;;;5047453;28;20522;-60
2022/07/13 10:15:06;;;;;;;8.32;4.75;;;;;;;;;;5047493;28;20045;-60
2022/07/13 10:17:32;;;;;;;6.25;3.80;;;;;;;;;;5051231;28;20068;-60
2022/07/13 10:20:10;;;;;;;9.43;4.07;;;;;;;;;;5050716;28;20045;-60
2022/07/13 10:22:41;;;;;;;6.65;4.60;;;;;;;;;;5051215;28;20518;-61
2022/07/13 10:25:07;;;;;;;8.63;4.63;;;;;;;;;;5051359;28;20085;-60
2022/07/13 10:27:34;;;;;;;6.80;4.05;;;;;;;;;;5050601;28;20806;-60
2022/07/13 10:30:03;;;;;;;5.78;4.90;;;;;;;;;;5051510;28;20044;-60
2022/07/13 10:32:30;;;;;;;6.13;3.88;;;;;;;;;;5051301;28;20139;-60
2022/07/13 10:35:07;;;;;;;5.68;3.85;;;;;;;;;;5050567;28;20061;-61
2022/07/13 10:37:52;;;;;;;6.03;3.75;;;;;;;;;;5050966;28;20071;-60
2022/07/13 10:40:19;;;;;;;6.75;4.00;;;;;;;;;;5050939;28;20053;-60
2022/07/13 10:42:54;;;;;;;6.70;3.60;;;;;;;;;;5050447;28;20067;-60
2022/07/13 10:45:32;;;;;;;7.30;4.22;;;;;;;;;;5050830;28;20053;-60
2022/07/13 10:47:59;;;;;;;5.70;3.80;;;;;;;;;;5050641;28;20674;-60
2022/07/13 10:50:36;;;;;;;5.78;3.47;;;;;;;;;;5050663;28;20056;-60
2022/07/13 10:53:02;;;;;;;4.97;3.58;;;;;;;;;;5050439;28;20499;-60
2022/07/13 10:55:32;;;;;;;4.47;3.17;;;;;;;;;;5050665;28;20049;-61
2022/07/13 10:58:00;;;;;;;6.03;3.42;;;;;;;;;;5050699;28;20045;-61
2022/07/13 11:00:43;;;;;;;5.25;3.10;;;;;;;;;;5050783;28;20499;-60
2022/07/13 11:03:23;;;;;;;4.43;3.00;;;;;;;;;;5050184;28;20044;-60
2022/07/13 11:06:05;;;;;;;4.22;2.67;;;;;;;;;;5050716;28;20044;-60
2022/07/13 11:08:31;;;;;;;3.45;1.95;;;;;;;;;;5050651;28;20052;-60
2022/07/13 11:11:16;;;;;;;4.85;2.15;;;;;;;;;;5050472;28;20048;-60
2022/07/13 11:13:48;;;;;;;4.78;2.58;;;;;;;;;;5050075;28;20415;-61
2022/07/13 11:16:14;;;;;;;5.75;2.25;;;;;;;;;;5050394;28;20083;-61
2022/07/13 11:18:41;;;;;;;3.30;1.80;;;;;;;;;;5050400;28;20087;-61
2022/07/13 11:21:10;;;;;;;4.35;1.77;;;;;;;;;;5050711;28;20118;-60
2022/07/13 11:26:44;;;;;;;2.70;1.52;;;;;;;;;;5050297;28;20179;-60
2022/07/13 11:29:21;;;;;;;3.92;1.45;;;;;;;;;;5049444;28;20418;-60
2022/07/13 11:31:54;;;;;;;5.85;1.92;;;;;;;;;;5050136;28;20409;-60
2022/07/13 11:34:20;;;;;;;2.92;1.48;;;;;;;;;;5050380;28;20048;-61
2022/07/13 11:36:47;;;;;;;4.47;1.60;;;;;;;;;;5049315;28;20091;-61
2022/07/13 11:39:29;;;;;;;3.17;1.45;;;;;;;;;;5049849;28;20056;-60
2022/07/13 11:41:56;;;;;;;3.67;1.40;;;;;;;;;;5049583;28;20057;-61
2022/07/13 11:44:23;;;;;;;4.32;1.70;;;;;;;;;;5049898;28;20088;-61
2022/07/13 11:46:49;;;;;;;2.38;1.40;;;;;;;;;;5049563;28;20056;-60
2022/07/13 11:49:15;;;;;;;4.28;1.67;;;;;;;;;;5049781;28;20052;-61
2022/07/13 11:51:45;;;;;;;6.90;1.40;;;;;;;;;;5047987;28;20056;-61
2022/07/13 11:54:14;;;;;;;3.75;1.52;;;;;;;;;;5049386;28;20084;-61
2022/07/13 11:56:47;;;;;;;3.45;1.90;;;;;;;;;;5049645;28;20056;-61
2022/07/13 11:59:13;;;;;;;3.42;1.38;;;;;;;;;;5049256;28;20128;-61
2022/07/13 12:01:48;;;;;;;2.90;1.88;;;;;;;;;;5048987;28;20045;-61
2022/07/13 12:04:21;;;;;;;3.38;1.60;;;;;;;;;;5049416;28;20049;-61
2022/07/13 12:06:47;;;;;;;3.22;1.38;;;;;;;;;;5049268;28;20068;-60
2022/07/13 12:09:19;;;;;;;5.22;1.67;;;;;;;;;;5049214;28;20090;-61
2022/07/13 12:11:46;;;;;;;2.83;1.40;;;;;;;;;;5049094;28;20095;-61
2022/07/13 12:14:12;;;;;;;4.45;1.67;;;;;;;;;;5048551;28;20052;-61
2022/07/13 12:16:38;;;;;;;3.35;1.40;;;;;;;;;;5048782;28;20092;-61
2022/07/13 12:19:09;;;;;;;5.15;1.48;;;;;;;;;;5049405;28;20045;-60
2022/07/13 12:21:35;;;;;;;3.95;1.70;;;;;;;;;;5048807;28;20419;-61
2022/07/13 12:24:02;;;;;;;3.92;1.33;;;;;;;;;;5048644;28;20140;-61
2022/07/13 12:26:29;;;;;;;3.85;1.80;;;;;;;;;;5048845;28;20072;-61
2022/07/13 12:28:55;;;;;;;5.70;1.48;;;;;;;;;;5048667;28;20105;-62
2022/07/13 12:31:22;;;;;;;3.40;1.58;;;;;;;;;;5049107;28;20128;-61
2022/07/13 12:33:52;;;;;;;3.30;1.60;;;;;;;;;;5048673;28;20044;-61
2022/07/13 12:36:20;;;;;;;3.60;1.60;;;;;;;;;;5048599;28;20120;-61
2022/07/13 12:38:56;;;;;;;5.07;1.70;;;;;;;;;;5048460;28;20044;-60
2022/07/13 12:41:42;;;;;;;4.45;2.20;;;;;;;;;;5048562;28;20048;-61
2022/07/13 12:44:09;;;;;;;5.57;1.92;;;;;;;;;;5048556;28;20064;-60
2022/07/13 12:46:55;;;;;;;3.85;1.73;;;;;;;;;;5048602;28;20143;-60
2022/07/13 12:49:28;;;;;;;3.67;1.90;;;;;;;;;;5048481;28;20041;-61
2022/07/13 12:51:54;;;;;;;4.80;2.42;;;;;;;;;;5048210;28;20506;-60
2022/07/13 12:54:39;;;;;;;3.67;2.22;;;;;;;;;;5048271;28;20048;-61
2022/07/13 12:57:16;;;;;;;4.72;2.50;;;;;;;;;;5048508;28;20041;-60
2022/07/13 12:59:56;;;;;;;3.40;2.00;;;;;;;;;;5048229;28;20447;-60
2022/07/13 13:02:22;;;;;;;4.00;1.80;;;;;;;;;;5048408;28;20045;-61
2022/07/13 13:04:49;;;;;;;5.95;1.73;;;;;;;;;;5048549;28;20055;-61
2022/07/13 13:07:15;;;;;;;3.03;1.70;;;;;;;;;;5047820;28;20478;-61
2022/07/13 13:09:41;;;;;;;2.97;1.60;;;;;;;;;;5048421;28;20056;-61
2022/07/13 13:12:07;;;;;;;5.35;1.45;;;;;;;;;;5048216;28;20384;-61
2022/07/13 13:14:33;;;;;;;2.17;1.52;;;;;;;;;;5047975;28;20155;-61
2022/07/13 13:16:59;;;;;;;2.88;1.40;;;;;;;;;;5047908;28;20057;-61
2022/07/13 13:19:25;;;;;;;4.13;1.50;;;;;;;;;;5048089;28;20454;-61
2022/07/13 13:21:51;;;;;;;2.35;1.20;;;;;;;;;;5047667;28;20079;-60
2022/07/13 13:24:17;;;;;;;3.38;1.55;;;;;;;;;;5047964;28;20075;-61
2022/07/13 13:26:46;;;;;;;3.65;1.20;;;;;;;;;;5048086;28;20053;-60
2022/07/13 13:31:58;;;;;;;5.50;2.20;;;;;;;;;;5056286;28;20041;-61
2022/07/13 13:34:25;;;;;;;3.60;1.40;;;;;;;;;;5068478;28;20567;-61
2022/07/13 13:36:51;;;;;;;2.60;1.33;;;;;;;;;;5068390;28;20040;-61
2022/07/13 13:39:18;;;;;;;4.68;1.85;;;;;;;;;;5068813;28;20384;-61
2022/07/13 13:41:47;;;;;;;4.60;1.65;;;;;;;;;;5068607;28;20400;-61
2022/07/13 13:44:14;;;;;;;7.78;1.63;;;;;;;;;;5067978;28;20514;-61
2022/07/13 13:46:40;;;;;;;2.88;1.58;;;;;;;;;;5068188;28;20055;-61
2022/07/13 13:49:06;;;;;;;3.88;1.25;;;;;;;;;;5068770;28;20036;-60
2022/07/13 13:51:32;;;;;;;5.13;1.58;;;;;;;;;;5066653;28;20063;-60
2022/07/13 13:53:58;;;;;;;3.53;1.50;;;;;;;;;;5067879;28;20047;-60
2022/07/13 13:56:24;;;;;;;4.20;1.48;;;;;;;;;;5068530;28;20487;-60
2022/07/13 13:58:50;;;;;;;3.75;1.30;;;;;;;;;;5061854;28;20502;-60
2022/07/13 14:01:17;;;;;;;5.07;1.50;;;;;;;;;;5050104;28;20419;-60
2022/07/13 14:03:44;;;;;;;3.40;1.48;;;;;;;;;;5053041;28;20055;-60
2022/07/13 14:06:14;;;;;;;3.60;1.75;;;;;;;;;;5056689;28;20041;-60
2022/07/13 14:08:43;;;;;;;4.00;1.55;;;;;;;;;;5056969;28;20041;-60
2022/07/13 14:11:13;;;;;;;4.20;1.67;;;;;;;;;;5048635;28;20047;-60
2022/07/13 14:13:40;;;;;;;3.92;1.50;;;;;;;;;;5048402;28;20091;-60
2022/07/13 14:16:06;;;;;;;2.25;1.33;;;;;;;;;;5047998;28;20496;-60
2022/07/13 14:18:33;;;;;;;3.20;1.58;;;;;;;;;;5047956;28;20045;-60
2022/07/13 14:20:59;;;;;;;3.40;1.10;;;;;;;;;;5048224;28;20048;-61
2022/07/13 14:23:25;;;;;;;5.38;1.98;;;;;;;;;;5048011;28;20045;-60
2022/07/13 14:25:51;;;;;;;4.18;1.40;;;;;;;;;;5048305;28;20091;-60
2022/07/13 14:28:17;;;;;;;3.95;1.65;;;;;;;;;;5048066;28;20041;-60
2022/07/13 14:30:44;;;;;;;3.97;1.52;;;;;;;;;;5048187;28;20495;-60
2022/07/13 14:33:14;;;;;;;4.80;1.40;;;;;;;;;;5047527;28;20099;-60
2022/07/13 14:35:40;;;;;;;2.28;1.23;;;;;;;;;;5048055;28;20052;-60
2022/07/13 14:38:06;;;;;;;7.00;1.60;;;;;;;;;;5047697;28;20049;-60
2022/07/13 14:40:33;;;;;;;6.30;1.70;;;;;;;;;;5048024;28;20057;-60
2022/07/13 14:42:59;;;;;;;3.72;1.92;;;;;;;;;;5047788;28;20068;-60
2022/07/13 14:45:25;;;;;;;4.18;1.23;;;;;;;;;;5047634;28;20879;-60
2022/07/13 14:47:51;;;;;;;3.35;1.48;;;;;;;;;;5047620;28;20056;-60
2022/07/13 14:50:17;;;;;;;5.00;1.85;;;;;;;;;;5048010;28;20094;-60
2022/07/13 14:52:43;;;;;;;4.18;1.35;;;;;;;;;;5047710;28;20081;-60
2022/07/13 14:55:09;;;;;;;4.10;1.55;;;;;;;;;;5047985;28;20041;-60